Time;durP1;ratioP1;P1;durP2;ratioP2;P2;SDS_P1;SDS_P2;PMS_P1;PMS_P2;Temp;Humidity;BMP_temperature;BMP_pressure;BME280_temperature;BME280_humidity;BME280_pressure;Samples;Min_cycle;Max_cycle;Signal;HPM_P1;HPM_P2
2021/05/20 00:01:21;;;;;;;5.73;4.00;;;;;;;;;;5042551;28;20563;-95
2021/05/20 00:03:58;;;;;;;7.60;3.80;;;;;;;;;;5035043;28;20439;-96
2021/05/20 00:06:40;;;;;;;7.53;3.77;;;;;;;;;;5038579;28;20481;-96
2021/05/20 00:09:08;;;;;;;8.57;3.87;;;;;;;;;;5044689;28;20450;-96
2021/05/20 00:11:37;;;;;;;7.33;3.47;;;;;;;;;;5044293;28;20456;-95
2021/05/20 00:14:06;;;;;;;6.50;3.63;;;;;;;;;;5029511;28;20553;-96
2021/05/20 00:16:32;;;;;;;6.67;3.70;;;;;;;;;;5034415;28;20482;-94
2021/05/20 00:18:58;;;;;;;3.80;3.30;;;;;;;;;;5051196;28;20447;-95
2021/05/20 00:21:25;;;;;;;8.73;3.67;;;;;;;;;;5028590;28;20463;-96
2021/05/20 00:23:52;;;;;;;5.83;3.50;;;;;;;;;;5041248;28;20487;-94
2021/05/20 00:26:19;;;;;;;8.67;3.67;;;;;;;;;;5043819;28;20442;-95
2021/05/20 00:28:55;;;;;;;8.80;3.63;;;;;;;;;;5129725;23;20506;-96
2021/05/20 00:36:32;;;;;;;5.60;3.37;;;;;;;;;;5657019;22;20565;-96
2021/05/20 00:54:55;;;;;;;4.90;2.93;;;;;;;;;;4528754;23;20479;-96
2021/05/20 00:57:29;;;;;;;4.57;3.10;;;;;;;;;;5048338;28;20515;-96
2021/05/20 01:00:00;;;;;;;4.50;3.40;;;;;;;;;;5051940;28;20450;-96
2021/05/20 01:02:26;;;;;;;4.27;3.43;;;;;;;;;;5042461;28;20447;-96
2021/05/20 01:04:53;;;;;;;4.40;3.70;;;;;;;;;;5037356;28;20452;-96
2021/05/20 01:07:19;;;;;;;8.30;3.37;;;;;;;;;;5046360;28;20459;-95
2021/05/20 01:10:03;;;;;;;7.57;3.60;;;;;;;;;;5040519;28;20467;-96
2021/05/20 01:12:30;;;;;;;8.63;4.00;;;;;;;;;;5143692;22;21173;-95
2021/05/20 01:14:58;;;;;;;6.13;3.33;;;;;;;;;;5035083;28;20471;-96
2021/05/20 01:20:02;;;;;;;8.57;3.20;;;;;;;;;;5902162;23;20498;-96
2021/05/20 01:22:30;;;;;;;7.77;3.70;;;;;;;;;;5034610;28;20443;-96
2021/05/20 01:25:01;;;;;;;7.73;3.20;;;;;;;;;;5031508;28;20470;-96
2021/05/20 01:30:48;;;;;;;3.70;3.23;;;;;;;;;;5038084;28;20495;-96
2021/05/20 01:33:15;;;;;;;6.83;3.27;;;;;;;;;;5028897;28;20499;-96
2021/05/20 01:35:42;;;;;;;6.17;3.67;;;;;;;;;;5032167;28;20527;-96
2021/05/20 01:47:18;;;;;;;5.20;3.63;;;;;;;;;;5018092;28;20448;-96
2021/05/20 01:49:58;;;;;;;7.70;3.90;;;;;;;;;;5036417;28;20444;-96
2021/05/20 01:52:26;;;;;;;5.37;3.63;;;;;;;;;;5032689;28;20450;-96
2021/05/20 02:02:46;;;;;;;4.40;4.00;;;;;;;;;;5022210;28;20445;-96
2021/05/20 02:05:15;;;;;;;5.87;4.03;;;;;;;;;;5020042;28;20444;-96
2021/05/20 02:07:41;;;;;;;6.60;4.00;;;;;;;;;;5023495;28;20460;-96
2021/05/20 02:10:08;;;;;;;5.50;4.50;;;;;;;;;;5019242;28;20456;-96
2021/05/20 02:12:36;;;;;;;5.23;4.43;;;;;;;;;;5027657;28;21480;-96
2021/05/20 02:15:03;;;;;;;8.30;4.33;;;;;;;;;;5032044;28;20463;-96
2021/05/20 02:33:16;;;;;;;6.10;3.60;;;;;;;;;;5014016;28;20500;-96
2021/05/20 02:44:04;;;;;;;8.30;4.10;;;;;;;;;;5034331;28;20503;-96
2021/05/20 02:46:49;;;;;;;7.60;3.90;;;;;;;;;;5032390;28;20531;-96
2021/05/20 02:49:16;;;;;;;5.10;4.10;;;;;;;;;;5031368;28;20456;-96
2021/05/20 02:54:18;;;;;;;7.97;3.70;;;;;;;;;;5960633;22;20493;-96
2021/05/20 02:56:44;;;;;;;7.83;4.20;;;;;;;;;;5042444;28;20469;-94
2021/05/20 02:59:10;;;;;;;9.13;4.57;;;;;;;;;;5043750;28;20447;-96
2021/05/20 03:01:42;;;;;;;8.93;4.30;;;;;;;;;;5039933;28;20903;-93
2021/05/20 03:04:08;;;;;;;8.43;4.00;;;;;;;;;;5041663;28;20447;-92
2021/05/20 03:06:34;;;;;;;7.07;3.93;;;;;;;;;;5040685;28;20462;-93
2021/05/20 03:09:00;;;;;;;6.87;4.37;;;;;;;;;;5043503;28;20470;-94
2021/05/20 03:11:29;;;;;;;8.77;4.73;;;;;;;;;;5040989;28;20452;-96
2021/05/20 03:13:57;;;;;;;7.03;4.47;;;;;;;;;;5054543;23;20474;-96
2021/05/20 03:16:26;;;;;;;6.10;3.67;;;;;;;;;;5044216;28;20449;-93
2021/05/20 03:18:53;;;;;;;9.30;2.77;;;;;;;;;;5044089;28;20526;-94
2021/05/20 03:21:20;;;;;;;5.80;2.50;;;;;;;;;;5040618;28;20454;-89
2021/05/20 03:23:46;;;;;;;4.47;2.67;;;;;;;;;;5043059;28;20454;-92
2021/05/20 03:26:12;;;;;;;4.63;2.80;;;;;;;;;;5042428;28;20451;-93
2021/05/20 03:28:39;;;;;;;4.73;2.80;;;;;;;;;;5044416;28;20455;-93
2021/05/20 03:31:05;;;;;;;4.50;2.20;;;;;;;;;;5043521;28;20447;-94
2021/05/20 03:33:40;;;;;;;6.17;2.93;;;;;;;;;;5042256;28;20514;-93
2021/05/20 03:36:08;;;;;;;3.93;2.40;;;;;;;;;;5053829;28;20438;-91
2021/05/20 03:38:37;;;;;;;3.73;2.60;;;;;;;;;;5052499;28;20447;-93
2021/05/20 03:41:03;;;;;;;4.57;2.70;;;;;;;;;;5047817;28;20441;-92
2021/05/20 03:43:30;;;;;;;5.00;2.63;;;;;;;;;;5044189;28;20458;-95
2021/05/20 03:45:58;;;;;;;3.73;2.50;;;;;;;;;;5044973;28;20451;-94
2021/05/20 03:48:24;;;;;;;3.07;2.77;;;;;;;;;;5035704;28;20475;-93
2021/05/20 03:50:50;;;;;;;6.20;2.50;;;;;;;;;;5042721;28;20461;-95
2021/05/20 03:53:16;;;;;;;6.30;2.60;;;;;;;;;;5040517;28;20494;-96
2021/05/20 03:55:42;;;;;;;3.90;2.90;;;;;;;;;;5042819;28;20443;-93
2021/05/20 03:58:19;;;;;;;4.40;2.67;;;;;;;;;;5043859;28;20462;-96
2021/05/20 04:00:45;;;;;;;2.30;2.10;;;;;;;;;;5049714;28;20558;-96
2021/05/20 04:03:21;;;;;;;4.27;2.70;;;;;;;;;;5025560;28;20462;-96
2021/05/20 04:05:50;;;;;;;6.87;2.43;;;;;;;;;;5044271;28;20454;-96
2021/05/20 04:08:16;;;;;;;3.00;2.00;;;;;;;;;;5042539;28;20461;-94
2021/05/20 04:10:44;;;;;;;3.83;2.37;;;;;;;;;;5045786;28;20442;-94
2021/05/20 04:13:10;;;;;;;5.13;2.63;;;;;;;;;;5042083;28;20565;-94
2021/05/20 04:15:37;;;;;;;6.53;2.90;;;;;;;;;;5045813;28;20483;-93
2021/05/20 04:18:03;;;;;;;4.47;2.67;;;;;;;;;;5040412;28;20454;-92
2021/05/20 04:20:29;;;;;;;4.73;2.23;;;;;;;;;;5036484;28;20450;-92
2021/05/20 04:22:55;;;;;;;7.90;2.60;;;;;;;;;;5047076;28;20453;-92
2021/05/20 04:25:22;;;;;;;5.73;2.73;;;;;;;;;;5043897;28;20454;-93
2021/05/20 04:27:48;;;;;;;7.73;3.33;;;;;;;;;;5046045;28;20450;-94
2021/05/20 04:30:14;;;;;;;5.40;3.20;;;;;;;;;;5043602;28;20459;-93
2021/05/20 04:32:40;;;;;;;6.83;4.20;;;;;;;;;;5046981;28;20473;-92
2021/05/20 04:35:07;;;;;;;4.77;4.03;;;;;;;;;;5047822;28;20463;-92
2021/05/20 04:37:33;;;;;;;6.70;4.63;;;;;;;;;;5045077;28;20454;-91
2021/05/20 04:39:59;;;;;;;5.90;5.03;;;;;;;;;;5043611;28;20455;-92
2021/05/20 04:42:26;;;;;;;6.23;4.90;;;;;;;;;;5045343;28;21001;-91
2021/05/20 04:44:54;;;;;;;5.47;4.57;;;;;;;;;;5044239;28;20454;-96
2021/05/20 04:47:20;;;;;;;6.37;4.10;;;;;;;;;;5048551;28;20504;-93
2021/05/20 04:49:47;;;;;;;4.07;3.67;;;;;;;;;;5047288;28;20878;-96
2021/05/20 04:52:13;;;;;;;6.10;3.97;;;;;;;;;;5045908;28;20455;-92
2021/05/20 04:54:39;;;;;;;4.80;3.67;;;;;;;;;;5043062;28;20497;-91
2021/05/20 04:57:05;;;;;;;4.23;3.73;;;;;;;;;;5046177;28;20447;-93
2021/05/20 04:59:31;;;;;;;4.00;3.27;;;;;;;;;;5045152;28;20443;-92
2021/05/20 05:01:57;;;;;;;4.37;3.10;;;;;;;;;;5043761;28;20447;-94
2021/05/20 05:04:23;;;;;;;5.17;3.50;;;;;;;;;;5046372;28;20465;-93
2021/05/20 05:06:49;;;;;;;4.23;3.80;;;;;;;;;;5043812;28;20455;-93
2021/05/20 05:09:15;;;;;;;4.10;3.70;;;;;;;;;;5045291;28;20474;-95
2021/05/20 05:11:42;;;;;;;4.00;3.60;;;;;;;;;;5044959;28;20451;-94
2021/05/20 05:14:08;;;;;;;4.67;4.20;;;;;;;;;;5045526;28;20502;-94
2021/05/20 05:16:34;;;;;;;5.33;3.80;;;;;;;;;;5043130;28;20454;-94
2021/05/20 05:19:01;;;;;;;8.30;5.40;;;;;;;;;;5046473;28;20811;-96
2021/05/20 05:21:27;;;;;;;6.27;4.73;;;;;;;;;;5144541;22;20512;-96
2021/05/20 05:24:18;;;;;;;7.10;4.37;;;;;;;;;;5055509;28;20443;-96
2021/05/20 05:26:48;;;;;;;5.20;4.70;;;;;;;;;;5050967;28;20530;-96
2021/05/20 05:45:31;;;;;;;7.90;6.37;;;;;;;;;;2560321;22;20493;-96
2021/05/20 05:47:58;;;;;;;6.73;4.80;;;;;;;;;;5335181;23;20552;-96
2021/05/20 05:50:25;;;;;;;7.10;5.17;;;;;;;;;;5060907;28;20450;-95
2021/05/20 05:53:13;;;;;;;8.93;5.40;;;;;;;;;;5057468;28;20501;-96
2021/05/20 05:58:23;;;;;;;8.10;5.20;;;;;;;;;;5039813;28;20443;-96
2021/05/20 06:01:10;;;;;;;7.87;4.80;;;;;;;;;;5036732;28;20439;-94
2021/05/20 06:03:37;;;;;;;4.33;3.67;;;;;;;;;;5034357;28;20455;-93
2021/05/20 06:06:06;;;;;;;4.60;4.20;;;;;;;;;;5028929;28;20470;-96
2021/05/20 06:08:37;;;;;;;4.17;3.80;;;;;;;;;;5043394;28;20470;-96
2021/05/20 06:11:03;;;;;;;6.13;4.17;;;;;;;;;;5040611;28;20468;-96
2021/05/20 06:13:30;;;;;;;5.97;3.57;;;;;;;;;;5046558;28;20551;-96
2021/05/20 06:15:56;;;;;;;5.73;3.97;;;;;;;;;;5051576;28;20447;-96
2021/05/20 06:18:33;;;;;;;5.63;4.20;;;;;;;;;;5038643;28;21027;-96
2021/05/20 06:21:03;;;;;;;7.20;4.03;;;;;;;;;;5131106;23;20482;-96
2021/05/20 06:23:53;;;;;;;5.73;4.03;;;;;;;;;;5051014;28;20431;-96
2021/05/20 06:26:25;;;;;;;5.30;4.80;;;;;;;;;;5048568;28;20444;-96
2021/05/20 06:28:52;;;;;;;6.20;5.00;;;;;;;;;;5045920;28;20458;-95
2021/05/20 06:31:20;;;;;;;5.53;3.93;;;;;;;;;;5047986;28;20439;-96
2021/05/20 06:33:47;;;;;;;7.50;4.17;;;;;;;;;;5046952;28;20497;-96
2021/05/20 06:36:15;;;;;;;5.27;4.10;;;;;;;;;;5052112;28;20462;-93
2021/05/20 06:38:42;;;;;;;5.27;3.70;;;;;;;;;;5052856;28;20519;-95
2021/05/20 06:41:11;;;;;;;3.90;3.60;;;;;;;;;;5048024;28;20454;-96
2021/05/20 06:43:43;;;;;;;5.27;3.97;;;;;;;;;;5052698;28;20506;-95
2021/05/20 06:46:10;;;;;;;5.07;3.70;;;;;;;;;;5055318;28;20447;-95
2021/05/20 06:48:48;;;;;;;3.80;3.50;;;;;;;;;;5053805;28;20451;-96
2021/05/20 06:51:46;;;;;;;6.20;4.17;;;;;;;;;;5025554;23;20465;-96
2021/05/20 06:54:15;;;;;;;4.60;3.60;;;;;;;;;;5001235;28;20469;-96
2021/05/20 06:56:46;;;;;;;4.00;3.70;;;;;;;;;;4996549;28;20465;-94
2021/05/20 07:02:03;;;;;;;5.23;3.00;;;;;;;;;;5006148;28;20456;-96
2021/05/20 07:04:30;;;;;;;4.50;3.70;;;;;;;;;;4998312;28;20898;-96
2021/05/20 07:15:16;;;;;;;5.10;3.30;;;;;;;;;;5031480;28;20547;-95
2021/05/20 07:17:51;;;;;;;7.40;3.60;;;;;;;;;;5030508;28;20432;-95
2021/05/20 07:20:17;;;;;;;5.20;3.60;;;;;;;;;;5043307;28;20452;-93
2021/05/20 07:22:43;;;;;;;4.00;3.60;;;;;;;;;;5040056;28;20450;-96
2021/05/20 07:25:11;;;;;;;5.37;4.00;;;;;;;;;;5037973;28;20451;-94
2021/05/20 07:27:37;;;;;;;5.83;3.90;;;;;;;;;;5041127;28;20451;-95
2021/05/20 07:30:18;;;;;;;5.10;3.53;;;;;;;;;;5039076;28;20474;-95
2021/05/20 07:32:47;;;;;;;3.93;3.30;;;;;;;;;;5037173;28;20447;-96
2021/05/20 07:35:43;;;;;;;3.87;3.40;;;;;;;;;;5029770;28;20464;-95
2021/05/20 07:38:18;;;;;;;6.00;3.57;;;;;;;;;;5031929;28;20471;-96
2021/05/20 07:40:44;;;;;;;2.73;1.80;;;;;;;;;;5041593;28;20460;-91
2021/05/20 07:43:29;;;;;;;2.17;1.83;;;;;;;;;;5041992;28;20455;-95
2021/05/20 07:45:57;;;;;;;2.50;1.93;;;;;;;;;;5029829;28;20456;-94
2021/05/20 07:48:33;;;;;;;2.10;1.40;;;;;;;;;;5027561;28;20443;-94
2021/05/20 07:51:01;;;;;;;2.07;1.40;;;;;;;;;;5045756;28;20465;-95
2021/05/20 07:53:30;;;;;;;2.23;1.53;;;;;;;;;;5043785;28;20474;-93
2021/05/20 07:55:56;;;;;;;3.23;1.43;;;;;;;;;;5045424;28;20464;-91
2021/05/20 07:58:22;;;;;;;2.83;1.60;;;;;;;;;;5027965;28;20478;-90
2021/05/20 08:00:48;;;;;;;4.50;1.80;;;;;;;;;;5032129;28;20467;-93
2021/05/20 08:03:22;;;;;;;3.43;1.90;;;;;;;;;;5025974;28;20457;-93
2021/05/20 08:05:56;;;;;;;1.47;1.30;;;;;;;;;;5037862;28;20485;-92
2021/05/20 08:08:32;;;;;;;2.43;1.53;;;;;;;;;;5041677;28;20463;-94
2021/05/20 08:11:03;;;;;;;2.07;1.80;;;;;;;;;;5039501;28;20502;-94
2021/05/20 08:13:29;;;;;;;4.00;1.47;;;;;;;;;;5032145;28;20483;-96
2021/05/20 08:15:55;;;;;;;3.43;1.67;;;;;;;;;;5010939;28;20458;-94
2021/05/20 08:18:21;;;;;;;4.03;2.00;;;;;;;;;;5029876;28;20452;-95
2021/05/20 08:20:48;;;;;;;1.90;1.50;;;;;;;;;;5026988;28;20462;-95
2021/05/20 08:23:43;;;;;;;2.30;1.80;;;;;;;;;;5033473;28;20444;-95
2021/05/20 08:26:12;;;;;;;3.40;1.80;;;;;;;;;;5018977;28;20452;-95
2021/05/20 08:28:38;;;;;;;3.03;1.70;;;;;;;;;;5025876;28;20459;-91
2021/05/20 08:31:05;;;;;;;1.67;1.57;;;;;;;;;;5024504;28;20460;-95
2021/05/20 08:33:32;;;;;;;2.33;1.90;;;;;;;;;;5028074;28;20479;-96
2021/05/20 08:36:10;;;;;;;2.23;1.60;;;;;;;;;;5027197;28;20485;-95
2021/05/20 08:39:00;;;;;;;2.17;1.70;;;;;;;;;;5024737;28;20440;-94
2021/05/20 08:41:28;;;;;;;1.80;1.70;;;;;;;;;;5023493;28;20459;-93
2021/05/20 08:43:54;;;;;;;1.57;1.47;;;;;;;;;;5030057;28;20486;-93
2021/05/20 08:46:25;;;;;;;3.23;1.60;;;;;;;;;;5027530;28;20474;-94
2021/05/20 08:48:57;;;;;;;3.00;1.60;;;;;;;;;;5031068;28;20493;-95
2021/05/20 08:54:05;;;;;;;3.20;1.43;;;;;;;;;;5034976;28;20495;-95
2021/05/20 08:56:34;;;;;;;2.07;1.47;;;;;;;;;;5035829;28;20505;-96
2021/05/20 08:59:09;;;;;;;1.93;1.83;;;;;;;;;;5035649;28;20460;-95
2021/05/20 09:01:37;;;;;;;1.60;1.50;;;;;;;;;;5031686;28;20523;-94
2021/05/20 09:04:04;;;;;;;1.73;1.63;;;;;;;;;;5031444;28;20452;-93
2021/05/20 09:06:37;;;;;;;1.77;1.67;;;;;;;;;;5028535;28;20447;-94
2021/05/20 09:09:05;;;;;;;3.90;1.80;;;;;;;;;;5023178;28;20499;-95
2021/05/20 09:11:33;;;;;;;2.93;1.67;;;;;;;;;;5060308;23;20500;-94
2021/05/20 09:14:17;;;;;;;2.00;1.50;;;;;;;;;;5056067;28;20515;-95
2021/05/20 09:16:46;;;;;;;1.47;1.30;;;;;;;;;;5048320;28;20511;-95
2021/05/20 09:22:10;;;;;;;1.60;1.50;;;;;;;;;;5114283;23;20502;-95
2021/05/20 09:25:08;;;;;;;5.10;1.80;;;;;;;;;;5034079;28;20494;-94
2021/05/20 09:27:38;;;;;;;1.70;1.60;;;;;;;;;;5041206;28;20446;-95
2021/05/20 09:30:25;;;;;;;1.50;1.40;;;;;;;;;;5033538;28;20435;-92
2021/05/20 09:32:53;;;;;;;2.50;1.30;;;;;;;;;;5043561;28;20465;-96
2021/05/20 09:38:13;;;;;;;1.40;1.30;;;;;;;;;;5087466;23;20497;-95
2021/05/20 09:40:41;;;;;;;1.43;1.33;;;;;;;;;;5030837;28;20506;-95
2021/05/20 09:43:34;;;;;;;1.43;1.33;;;;;;;;;;5028200;28;20769;-95
2021/05/20 09:46:04;;;;;;;2.00;1.30;;;;;;;;;;5052263;23;20525;-94
2021/05/20 09:48:49;;;;;;;1.10;1.00;;;;;;;;;;5032284;28;20531;-94
2021/05/20 09:51:25;;;;;;;1.33;1.23;;;;;;;;;;5042400;28;20513;-93
2021/05/20 09:53:52;;;;;;;2.00;1.40;;;;;;;;;;5039037;28;20481;-94
2021/05/20 09:59:41;;;;;;;2.10;1.20;;;;;;;;;;5042404;28;20473;-95
2021/05/20 10:02:22;;;;;;;2.07;1.30;;;;;;;;;;5173303;22;20460;-96
2021/05/20 10:13:01;;;;;;;1.30;1.20;;;;;;;;;;5012111;28;20492;-96
2021/05/20 10:15:33;;;;;;;1.20;1.10;;;;;;;;;;5010351;28;20495;-96
2021/05/20 10:18:07;;;;;;;1.30;1.20;;;;;;;;;;5105224;23;20509;-96
2021/05/20 10:20:49;;;;;;;2.07;1.43;;;;;;;;;;5400168;22;20520;-96
2021/05/20 10:25:57;;;;;;;1.30;1.20;;;;;;;;;;5073149;23;20452;-94
2021/05/20 10:28:35;;;;;;;2.60;1.20;;;;;;;;;;5054914;28;20454;-95
2021/05/20 10:31:18;;;;;;;1.50;1.40;;;;;;;;;;5054629;28;20451;-96
2021/05/20 10:39:49;;;;;;;1.20;1.10;;;;;;;;;;5172544;22;20462;31
2021/05/20 10:51:35;;;;;;;1.80;1.70;;;;;;;;;;4942505;28;20455;-94
2021/05/20 10:54:14;;;;;;;1.37;1.10;;;;;;;;;;4953211;29;20535;-95
2021/05/20 11:19:28;;;;;;;3.20;1.90;;;;;;;;;;5043359;23;20506;-96
2021/05/20 11:22:18;;;;;;;2.70;1.40;;;;;;;;;;5092364;22;20478;-95
2021/05/20 11:27:23;;;;;;;2.27;2.07;;;;;;;;;;5091792;23;20472;-95
2021/05/20 11:30:05;;;;;;;1.73;1.40;;;;;;;;;;5047988;28;20451;-96
2021/05/20 11:35:43;;;;;;;2.00;1.13;;;;;;;;;;5051337;28;20561;-96
2021/05/20 11:38:21;;;;;;;1.63;1.30;;;;;;;;;;5038732;28;20457;-96
2021/05/20 11:40:47;;;;;;;1.33;1.23;;;;;;;;;;5047496;28;20460;-95
2021/05/20 11:43:14;;;;;;;1.30;1.20;;;;;;;;;;5048946;28;20908;-95
2021/05/20 11:45:49;;;;;;;1.27;1.17;;;;;;;;;;5045425;28;20464;-96
2021/05/20 11:48:17;;;;;;;1.50;1.40;;;;;;;;;;5044595;28;20478;-96
2021/05/20 11:50:49;;;;;;;2.87;1.40;;;;;;;;;;5048347;28;20462;-94
2021/05/20 11:53:19;;;;;;;1.60;1.40;;;;;;;;;;5097118;23;20592;-96
2021/05/20 11:55:46;;;;;;;1.83;1.73;;;;;;;;;;5067633;28;20454;-96
2021/05/20 11:58:27;;;;;;;1.53;1.30;;;;;;;;;;5046838;28;20465;-95
2021/05/20 12:01:01;;;;;;;1.80;1.70;;;;;;;;;;5047378;28;20466;-96
2021/05/20 12:11:30;;;;;;;3.50;1.30;;;;;;;;;;5137996;23;20550;-96
2021/05/20 12:14:11;;;;;;;1.97;1.50;;;;;;;;;;5128750;22;20505;-94
2021/05/20 12:30:13;;;;;;;2.13;1.30;;;;;;;;;;5281749;22;20490;-95
2021/05/20 12:35:52;;;;;;;1.83;1.50;;;;;;;;;;5296136;22;20491;-96
2021/05/20 12:44:21;;;;;;;1.67;1.57;;;;;;;;;;5093234;23;20569;-95
2021/05/20 12:49:32;;;;;;;2.03;1.77;;;;;;;;;;5027440;28;20454;-95
2021/05/20 12:52:08;;;;;;;1.60;1.50;;;;;;;;;;5243591;23;20518;-96
2021/05/20 13:06:02;;;;;;;1.70;1.60;;;;;;;;;;5485490;23;20483;-96
2021/05/20 13:08:47;;;;;;;2.90;1.60;;;;;;;;;;5009028;28;20462;-94
2021/05/20 13:11:20;;;;;;;4.60;1.50;;;;;;;;;;5010160;28;20445;-93
2021/05/20 13:14:12;;;;;;;2.60;1.57;;;;;;;;;;5009163;28;20517;-94
2021/05/20 13:16:48;;;;;;;1.77;1.67;;;;;;;;;;5010909;28;20460;-94
2021/05/20 13:24:59;;;;;;;5.23;1.70;;;;;;;;;;5010026;28;21396;-96
2021/05/20 13:27:33;;;;;;;1.47;1.30;;;;;;;;;;5015865;28;20449;-96
2021/05/20 13:30:08;;;;;;;1.80;1.70;;;;;;;;;;5143998;23;20519;-96
2021/05/20 13:32:47;;;;;;;3.03;1.93;;;;;;;;;;5054278;28;20440;-96
2021/05/20 13:35:15;;;;;;;1.90;1.63;;;;;;;;;;5048778;28;20554;-93
2021/05/20 13:38:13;;;;;;;2.20;2.00;;;;;;;;;;5059456;28;20438;-95
2021/05/20 13:40:41;;;;;;;2.97;2.67;;;;;;;;;;5064006;28;20457;-96
2021/05/20 13:43:10;;;;;;;2.20;2.00;;;;;;;;;;5066550;28;20454;-94
2021/05/20 13:45:37;;;;;;;3.37;2.70;;;;;;;;;;5065884;28;20439;-95
2021/05/20 13:56:26;;;;;;;3.60;2.10;;;;;;;;;;5065616;28;20468;-94
2021/05/20 13:58:53;;;;;;;2.70;2.23;;;;;;;;;;5062659;28;20481;-95
2021/05/20 14:01:21;;;;;;;2.10;1.70;;;;;;;;;;5065156;28;21931;-94
2021/05/20 14:03:59;;;;;;;3.93;2.20;;;;;;;;;;5062079;28;20490;-92
2021/05/20 14:06:25;;;;;;;4.60;2.40;;;;;;;;;;5058077;28;20453;-93
2021/05/20 14:08:51;;;;;;;2.20;2.00;;;;;;;;;;5060149;28;20458;-95
2021/05/20 14:11:17;;;;;;;2.20;1.90;;;;;;;;;;5055356;28;20469;-94
2021/05/20 14:13:49;;;;;;;2.30;2.10;;;;;;;;;;5056617;28;20486;-96
2021/05/20 14:16:16;;;;;;;1.90;1.80;;;;;;;;;;5062720;28;20941;-93
2021/05/20 14:18:42;;;;;;;3.67;1.80;;;;;;;;;;5055324;28;20459;-93
2021/05/20 14:21:15;;;;;;;2.20;2.00;;;;;;;;;;5055270;28;20454;-95
2021/05/20 14:23:41;;;;;;;2.20;2.00;;;;;;;;;;5047095;28;20463;-95
2021/05/20 14:26:07;;;;;;;1.60;1.50;;;;;;;;;;5062507;28;20565;-93
2021/05/20 14:28:34;;;;;;;7.80;2.00;;;;;;;;;;5066172;28;20458;-95
2021/05/20 14:33:42;;;;;;;2.10;1.80;;;;;;;;;;5042501;28;20505;-93
2021/05/20 14:36:08;;;;;;;7.27;2.00;;;;;;;;;;5094877;23;20528;-93
2021/05/20 14:38:34;;;;;;;3.67;2.27;;;;;;;;;;5059550;28;20453;-96
2021/05/20 14:41:00;;;;;;;2.83;2.10;;;;;;;;;;5042743;28;20447;-94
2021/05/20 14:43:26;;;;;;;2.23;2.03;;;;;;;;;;5064602;28;20501;-96
2021/05/20 14:45:52;;;;;;;2.53;2.03;;;;;;;;;;5046607;28;20554;-96
2021/05/20 14:48:19;;;;;;;2.20;2.00;;;;;;;;;;5051624;28;20467;-94
2021/05/20 14:50:52;;;;;;;2.40;1.50;;;;;;;;;;5050868;28;20459;-93
2021/05/20 14:53:25;;;;;;;1.83;1.60;;;;;;;;;;5048453;28;20459;-94
2021/05/20 14:56:13;;;;;;;1.60;1.50;;;;;;;;;;5061499;28;20455;-96
2021/05/20 15:07:04;;;;;;;1.70;1.60;;;;;;;;;;5046273;28;20478;-95
2021/05/20 15:09:50;;;;;;;1.70;1.60;;;;;;;;;;5065888;28;20447;-96
2021/05/20 15:12:19;;;;;;;2.23;1.80;;;;;;;;;;5056455;28;20558;-95
2021/05/20 15:14:52;;;;;;;2.10;1.73;;;;;;;;;;5037353;28;20510;-96
2021/05/20 15:17:40;;;;;;;1.83;1.60;;;;;;;;;;5074289;23;20494;-96
2021/05/20 15:20:22;;;;;;;1.83;1.73;;;;;;;;;;5056773;28;20454;-96
2021/05/20 15:22:56;;;;;;;1.80;1.70;;;;;;;;;;5054626;28;20459;-96
2021/05/20 15:28:04;;;;;;;1.87;1.77;;;;;;;;;;5045081;26;20474;-96
2021/05/20 15:30:31;;;;;;;1.63;1.53;;;;;;;;;;5051770;28;20429;-96
2021/05/20 15:32:58;;;;;;;2.23;1.70;;;;;;;;;;5047742;28;20462;-96
2021/05/20 15:41:13;;;;;;;1.83;1.73;;;;;;;;;;5068068;23;20542;-96
2021/05/20 15:43:39;;;;;;;2.40;1.70;;;;;;;;;;5056091;28;20455;-96
2021/05/20 15:46:06;;;;;;;1.67;1.57;;;;;;;;;;5056332;28;20431;-96
2021/05/20 15:50:02;;;;;;;1.83;1.73;;;;;;;;;;5049834;28;20490;-96
2021/05/20 15:51:22;;;;;;;1.70;1.60;;;;;;;;;;5051991;28;20439;-96
2021/05/20 16:12:04;;;;;;;2.00;1.80;;;;;;;;;;5854054;22;20514;-96
2021/05/20 16:14:35;;;;;;;3.07;2.07;;;;;;;;;;5029721;28;20981;-96
2021/05/20 16:17:01;;;;;;;2.80;1.80;;;;;;;;;;5036201;28;20459;-96
2021/05/20 16:19:27;;;;;;;2.67;2.47;;;;;;;;;;5032513;28;20452;-96
2021/05/20 16:22:24;;;;;;;3.33;2.50;;;;;;;;;;5035651;28;20436;-96
2021/05/20 16:36:53;;;;;;;12.70;11.40;;;;;;;;;;5024483;28;20450;-96
2021/05/20 16:42:05;;;;;;;3.50;2.23;;;;;;;;;;5025275;28;20461;-96
2021/05/20 17:00:39;;;;;;;2.63;1.80;;;;;;;;;;4957885;28;20455;-96
2021/05/20 17:05:40;;;;;;;5.13;4.70;;;;;;;;;;5482767;23;21309;-96
2021/05/20 17:08:07;;;;;;;7.33;6.70;;;;;;;;;;5065553;23;20474;-96
2021/05/20 17:10:34;;;;;;;8.20;7.47;;;;;;;;;;5046572;28;20455;-96
2021/05/20 17:13:04;;;;;;;12.90;10.80;;;;;;;;;;5038813;28;20483;-96
2021/05/20 17:23:21;;;;;;;13.20;11.90;;;;;;;;;;5079329;23;20461;-96
2021/05/20 18:07:40;;;;;;;8.03;4.97;;;;;;;;;;5124112;23;20549;-95
2021/05/20 18:12:58;;;;;;;14.10;12.80;;;;;;;;;;5913071;23;21566;-95
2021/05/20 18:15:33;;;;;;;7.00;6.30;;;;;;;;;;5579810;22;20521;-96
2021/05/20 18:23:51;;;;;;;4.87;4.47;;;;;;;;;;5149514;23;20521;-96
2021/05/20 18:29:30;;;;;;;2.50;2.00;;;;;;;;;;5398960;23;21348;-96
2021/05/20 18:46:30;;;;;;;2.70;1.80;;;;;;;;;;6161942;23;20204;31
2021/05/20 18:49:24;;;;;;;5.17;1.90;;;;;;;;;;4960294;28;20563;-96
2021/05/20 18:52:05;;;;;;;2.03;1.83;;;;;;;;;;5018700;23;20562;-96
2021/05/20 19:07:39;;;;;;;5.07;4.57;;;;;;;;;;5758833;23;20826;-96
2021/05/20 19:13:28;;;;;;;10.93;8.80;;;;;;;;;;5160967;23;20560;-96
2021/05/20 19:15:56;;;;;;;12.93;11.73;;;;;;;;;;5060957;28;20478;-96
2021/05/20 19:18:26;;;;;;;7.50;6.60;;;;;;;;;;5058494;28;20454;-96
2021/05/20 19:29:22;;;;;;;1.90;1.77;;;;;;;;;;5097950;23;20504;-96
2021/05/20 19:31:55;;;;;;;6.10;2.30;;;;;;;;;;5059979;28;20462;-96
2021/05/20 19:34:22;;;;;;;3.83;2.10;;;;;;;;;;5050571;28;20518;-96
2021/05/20 19:36:48;;;;;;;2.77;2.30;;;;;;;;;;5058765;28;20456;-96
2021/05/20 19:39:14;;;;;;;4.90;2.17;;;;;;;;;;5070052;28;20521;-96
2021/05/20 20:24:30;;;;;;;4.27;1.60;;;;;;;;;;5184684;23;21970;-96
2021/05/20 20:29:41;;;;;;;2.97;2.40;;;;;;;;;;5060161;28;20444;-96
2021/05/20 20:32:17;;;;;;;3.37;2.43;;;;;;;;;;5068718;28;20479;-96
2021/05/20 20:35:04;;;;;;;2.30;2.10;;;;;;;;;;5062641;28;21827;-96
2021/05/20 20:37:54;;;;;;;2.50;2.30;;;;;;;;;;5073758;28;20449;-96
2021/05/20 20:43:02;;;;;;;7.17;3.80;;;;;;;;;;5053411;28;20490;-96
2021/05/20 20:45:30;;;;;;;8.13;5.20;;;;;;;;;;5063042;28;20468;-96
2021/05/20 20:47:59;;;;;;;5.87;3.90;;;;;;;;;;5066784;28;20468;-96
2021/05/20 20:50:27;;;;;;;5.17;4.67;;;;;;;;;;5051642;28;20466;-96
2021/05/20 20:52:54;;;;;;;6.43;4.30;;;;;;;;;;5049636;28;20458;-95
2021/05/20 20:55:20;;;;;;;8.50;4.20;;;;;;;;;;5057863;28;20494;-94
2021/05/20 20:57:47;;;;;;;4.60;2.90;;;;;;;;;;5048494;28;20458;-96
2021/05/20 21:00:14;;;;;;;7.27;3.30;;;;;;;;;;5058706;28;20442;-96
2021/05/20 21:02:40;;;;;;;3.30;3.00;;;;;;;;;;5052462;28;20450;-96
2021/05/20 21:08:10;;;;;;;4.50;4.10;;;;;;;;;;5064807;28;20488;-96
2021/05/20 21:10:42;;;;;;;4.20;3.80;;;;;;;;;;5059738;28;20454;-96
2021/05/20 21:13:10;;;;;;;7.03;5.70;;;;;;;;;;5058334;28;20447;-96
2021/05/20 21:21:17;;;;;;;11.40;9.70;;;;;;;;;;5050847;28;20441;-96
2021/05/20 21:26:34;;;;;;;10.10;8.93;;;;;;;;;;5055775;28;20483;-96
2021/05/20 21:34:35;;;;;;;7.47;5.57;;;;;;;;;;5265308;23;20505;-96
2021/05/20 21:37:06;;;;;;;6.60;6.00;;;;;;;;;;5037419;28;20461;-96
2021/05/20 21:42:58;;;;;;;7.57;6.60;;;;;;;;;;5215000;23;20478;-96
2021/05/20 21:45:31;;;;;;;6.93;6.23;;;;;;;;;;5040433;28;20466;-96
2021/05/20 21:48:08;;;;;;;5.80;4.80;;;;;;;;;;5061935;28;20440;-96
2021/05/20 21:53:43;;;;;;;5.00;4.60;;;;;;;;;;5061202;28;20525;-96
2021/05/20 21:58:43;;;;;;;4.97;4.00;;;;;;;;;;5053518;28;20510;-96
2021/05/20 22:01:09;;;;;;;4.40;4.00;;;;;;;;;;5064109;28;20451;-95
2021/05/20 22:03:35;;;;;;;6.50;4.60;;;;;;;;;;5053939;28;20465;-95
2021/05/20 22:06:06;;;;;;;4.87;4.47;;;;;;;;;;5065871;28;20458;-96
2021/05/20 22:08:33;;;;;;;5.70;3.97;;;;;;;;;;5035357;28;20490;-96
2021/05/20 22:11:06;;;;;;;4.20;3.50;;;;;;;;;;5033657;28;20443;-95
2021/05/20 22:13:53;;;;;;;4.17;3.77;;;;;;;;;;5053460;28;20458;-96
2021/05/20 22:16:20;;;;;;;4.10;2.77;;;;;;;;;;5048327;28;21108;-96
2021/05/20 22:18:46;;;;;;;3.17;2.57;;;;;;;;;;5047672;28;20498;-96
2021/05/20 22:21:14;;;;;;;2.80;2.60;;;;;;;;;;5067685;28;20472;-96
2021/05/20 22:23:43;;;;;;;3.73;2.80;;;;;;;;;;5055984;28;20454;-95
2021/05/20 22:26:29;;;;;;;2.70;2.50;;;;;;;;;;5032877;28;20530;-95
2021/05/20 22:28:59;;;;;;;2.33;2.17;;;;;;;;;;5041281;28;20478;-96
2021/05/20 22:34:09;;;;;;;5.57;2.40;;;;;;;;;;5062027;28;20498;-95
2021/05/20 22:36:35;;;;;;;3.20;2.87;;;;;;;;;;5044386;28;20455;-95
2021/05/20 22:39:01;;;;;;;3.10;2.80;;;;;;;;;;5055523;28;20485;-96
2021/05/20 22:41:27;;;;;;;2.87;2.67;;;;;;;;;;5059060;28;20533;-94
2021/05/20 22:43:53;;;;;;;3.77;2.67;;;;;;;;;;5047941;28;20447;-94
2021/05/20 22:46:19;;;;;;;8.33;2.80;;;;;;;;;;5059578;28;20450;-96
2021/05/20 22:48:46;;;;;;;5.03;2.57;;;;;;;;;;5064857;28;20450;-96
2021/05/20 22:51:12;;;;;;;2.70;2.50;;;;;;;;;;5057119;28;20453;-94
2021/05/20 22:53:38;;;;;;;3.90;2.87;;;;;;;;;;5054858;28;20461;-94
2021/05/20 22:56:05;;;;;;;3.80;3.17;;;;;;;;;;5042201;28;20479;-94
2021/05/20 22:58:31;;;;;;;3.43;3.13;;;;;;;;;;5052276;28;20507;-91